sensor_id;sensor_type;location;lat;lon;timestamp;pressure;altitude;pressure_sealevel;temperature;humidity
84835;BME280;75078;42.636;23.198;2024-03-02T00:02:07;91529.66;;;6.31;80.98
84835;BME280;75078;42.636;23.198;2024-03-02T00:04:33;91539.03;;;6.27;80.87
84835;BME280;75078;42.636;23.198;2024-03-02T00:06:59;91537.22;;;6.12;80.83
84835;BME280;75078;42.636;23.198;2024-03-02T00:09:24;91549.50;;;6.06;81.31
84835;BME280;75078;42.636;23.198;2024-03-02T00:11:50;91550.56;;;5.90;82.63
84835;BME280;75078;42.636;23.198;2024-03-02T00:14:16;91546.28;;;5.94;81.93
84835;BME280;75078;42.636;23.198;2024-03-02T00:16:42;91542.00;;;5.98;81.35
84835;BME280;75078;42.636;23.198;2024-03-02T00:19:09;91547.44;;;5.96;82.30
84835;BME280;75078;42.636;23.198;2024-03-02T00:21:34;91541.19;;;5.94;82.31
84835;BME280;75078;42.636;23.198;2024-03-02T00:24:01;91537.47;;;5.91;82.42
84835;BME280;75078;42.636;23.198;2024-03-02T00:26:32;91542.00;;;5.98;82.05
84835;BME280;75078;42.636;23.198;2024-03-02T00:28:57;91527.50;;;6.02;81.92
84835;BME280;75078;42.636;23.198;2024-03-02T00:31:22;91526.19;;;6.08;82.27
84835;BME280;75078;42.636;23.198;2024-03-02T00:33:48;91526.34;;;6.15;82.38
84835;BME280;75078;42.636;23.198;2024-03-02T00:36:22;91523.47;;;6.16;81.47
84835;BME280;75078;42.636;23.198;2024-03-02T00:38:51;91530.06;;;6.17;81.95
84835;BME280;75078;42.636;23.198;2024-03-02T00:41:34;91526.53;;;6.22;82.15
84835;BME280;75078;42.636;23.198;2024-03-02T00:44:01;91521.13;;;6.27;81.66
84835;BME280;75078;42.636;23.198;2024-03-02T00:46:28;91524.19;;;6.32;82.16
84835;BME280;75078;42.636;23.198;2024-03-02T00:48:57;91532.69;;;6.36;82.07
84835;BME280;75078;42.636;23.198;2024-03-02T00:51:24;91538.94;;;6.39;81.22
84835;BME280;75078;42.636;23.198;2024-03-02T00:53:54;91524.66;;;6.38;81.92
84835;BME280;75078;42.636;23.198;2024-03-02T00:56:22;91521.63;;;6.32;81.94
84835;BME280;75078;42.636;23.198;2024-03-02T00:58:48;91524.66;;;6.38;81.42
84835;BME280;75078;42.636;23.198;2024-03-02T01:01:13;91521.13;;;6.42;80.97
84835;BME280;75078;42.636;23.198;2024-03-02T01:03:39;91523.34;;;6.44;80.92
84835;BME280;75078;42.636;23.198;2024-03-02T01:06:05;91523.75;;;6.46;81.59
84835;BME280;75078;42.636;23.198;2024-03-02T01:08:30;91514.59;;;6.45;81.69
84835;BME280;75078;42.636;23.198;2024-03-02T01:10:56;91516.16;;;6.49;81.69
84835;BME280;75078;42.636;23.198;2024-03-02T01:13:22;91512.63;;;6.38;81.21
84835;BME280;75078;42.636;23.198;2024-03-02T01:15:48;91510.16;;;6.42;81.22
84835;BME280;75078;42.636;23.198;2024-03-02T01:18:14;91515.59;;;6.40;81.20
84835;BME280;75078;42.636;23.198;2024-03-02T01:20:39;91509.41;;;6.41;80.79
84835;BME280;75078;42.636;23.198;2024-03-02T01:23:05;91505.06;;;6.42;81.14
84835;BME280;75078;42.636;23.198;2024-03-02T01:25:30;91508.75;;;6.44;81.31
84835;BME280;75078;42.636;23.198;2024-03-02T01:27:56;91500.75;;;6.46;81.72
84835;BME280;75078;42.636;23.198;2024-03-02T01:30:21;91501.16;;;6.48;81.85
84835;BME280;75078;42.636;23.198;2024-03-02T01:32:47;91498.59;;;6.48;81.41
84835;BME280;75078;42.636;23.198;2024-03-02T01:35:12;91500.75;;;6.46;81.70
84835;BME280;75078;42.636;23.198;2024-03-02T01:37:38;91496.03;;;6.48;81.50
84835;BME280;75078;42.636;23.198;2024-03-02T01:40:03;91495.63;;;6.46;81.46
84835;BME280;75078;42.636;23.198;2024-03-02T01:42:37;91491.19;;;6.43;82.07
84835;BME280;75078;42.636;23.198;2024-03-02T01:45:05;91494.75;;;6.38;82.62
84835;BME280;75078;42.636;23.198;2024-03-02T01:47:30;91492.53;;;6.37;82.36
84835;BME280;75078;42.636;23.198;2024-03-02T01:49:55;91490.38;;;6.39;82.52
84835;BME280;75078;42.636;23.198;2024-03-02T01:52:21;91498.09;;;6.42;82.10
84835;BME280;75078;42.636;23.198;2024-03-02T01:54:47;91485.66;;;6.41;81.57
84835;BME280;75078;42.636;23.198;2024-03-02T01:57:12;91486.75;;;6.40;81.30
84835;BME280;75078;42.636;23.198;2024-03-02T01:59:37;91486.81;;;6.43;82.06
84835;BME280;75078;42.636;23.198;2024-03-02T02:02:03;91492.00;;;6.47;82.15
84835;BME280;75078;42.636;23.198;2024-03-02T02:04:28;91492.84;;;6.51;81.72
84835;BME280;75078;42.636;23.198;2024-03-02T02:06:54;91487.72;;;6.51;81.26
84835;BME280;75078;42.636;23.198;2024-03-02T02:09:19;91498.75;;;6.55;81.68
84835;BME280;75078;42.636;23.198;2024-03-02T02:11:45;91491.84;;;6.56;80.70
84835;BME280;75078;42.636;23.198;2024-03-02T02:14:10;91484.16;;;6.56;81.00
84835;BME280;75078;42.636;23.198;2024-03-02T02:16:36;91483.41;;;6.55;81.22
84835;BME280;75078;42.636;23.198;2024-03-02T02:19:02;91480.44;;;6.53;80.98
84835;BME280;75078;42.636;23.198;2024-03-02T02:21:27;91486.97;;;6.50;81.35
84835;BME280;75078;42.636;23.198;2024-03-02T02:23:52;91483.59;;;6.46;82.09
84835;BME280;75078;42.636;23.198;2024-03-02T02:26:18;91483.25;;;6.48;81.41
84835;BME280;75078;42.636;23.198;2024-03-02T02:28:43;91482.16;;;6.49;81.84
84835;BME280;75078;42.636;23.198;2024-03-02T02:31:12;91487.72;;;6.51;81.66
84835;BME280;75078;42.636;23.198;2024-03-02T02:33:39;91485.00;;;6.44;82.65
84835;BME280;75078;42.636;23.198;2024-03-02T02:36:05;91488.38;;;6.48;82.20
84835;BME280;75078;42.636;23.198;2024-03-02T02:38:35;91486.22;;;6.50;81.60
84835;BME280;75078;42.636;23.198;2024-03-02T02:41:02;91487.28;;;6.49;82.33
84835;BME280;75078;42.636;23.198;2024-03-02T02:43:27;91481.09;;;6.50;81.73
84835;BME280;75078;42.636;23.198;2024-03-02T02:45:52;91486.22;;;6.50;81.62
84835;BME280;75078;42.636;23.198;2024-03-02T02:48:18;91489.59;;;6.54;81.86
84835;BME280;75078;42.636;23.198;2024-03-02T02:50:43;91482.72;;;6.58;82.51
84835;BME280;75078;42.636;23.198;2024-03-02T02:53:09;91484.22;;;6.59;81.60
84835;BME280;75078;42.636;23.198;2024-03-02T02:55:35;91485.28;;;6.58;82.06
84835;BME280;75078;42.636;23.198;2024-03-02T02:58:08;91491.56;;;6.61;81.72
84835;BME280;75078;42.636;23.198;2024-03-02T03:00:33;91496.34;;;6.62;81.90
84835;BME280;75078;42.636;23.198;2024-03-02T03:02:58;91489.50;;;6.66;80.91
84835;BME280;75078;42.636;23.198;2024-03-02T03:05:24;91490.94;;;6.67;80.93
84835;BME280;75078;42.636;23.198;2024-03-02T03:07:49;91481.47;;;6.68;81.45
84835;BME280;75078;42.636;23.198;2024-03-02T03:10:16;91491.03;;;6.71;80.98
84835;BME280;75078;42.636;23.198;2024-03-02T03:12:42;91491.38;;;6.69;81.27
84835;BME280;75078;42.636;23.198;2024-03-02T03:15:08;91490.28;;;6.70;81.16
84835;BME280;75078;42.636;23.198;2024-03-02T03:17:34;91491.03;;;6.71;81.42
84835;BME280;75078;42.636;23.198;2024-03-02T03:20:01;91487.38;;;6.72;81.12
84835;BME280;75078;42.636;23.198;2024-03-02T03:22:26;91484.44;;;6.70;80.95
84835;BME280;75078;42.636;23.198;2024-03-02T03:24:52;91490.94;;;6.67;81.40
84835;BME280;75078;42.636;23.198;2024-03-02T03:27:17;91471.94;;;6.65;81.21
84835;BME280;75078;42.636;23.198;2024-03-02T03:29:43;91481.00;;;6.62;81.89
84835;BME280;75078;42.636;23.198;2024-03-02T03:32:08;91483.47;;;6.59;82.13
84835;BME280;75078;42.636;23.198;2024-03-02T03:34:34;91485.28;;;6.58;82.23
84835;BME280;75078;42.636;23.198;2024-03-02T03:36:59;91491.16;;;6.59;81.09
84835;BME280;75078;42.636;23.198;2024-03-02T03:39:25;91488.59;;;6.59;81.45
84835;BME280;75078;42.636;23.198;2024-03-02T03:41:50;91487.94;;;6.62;81.61
84835;BME280;75078;42.636;23.198;2024-03-02T03:44:16;91488.69;;;6.62;81.46
84835;BME280;75078;42.636;23.198;2024-03-02T03:46:41;91482.47;;;6.63;80.61
84835;BME280;75078;42.636;23.198;2024-03-02T03:49:07;91483.56;;;6.62;80.74
84835;BME280;75078;42.636;23.198;2024-03-02T03:51:33;91479.09;;;6.59;81.28
84835;BME280;75078;42.636;23.198;2024-03-02T03:53:58;91484.63;;;6.61;80.95
84835;BME280;75078;42.636;23.198;2024-03-02T03:56:24;91481.00;;;6.62;81.07
84835;BME280;75078;42.636;23.198;2024-03-02T03:58:49;91484.22;;;6.59;81.08
84835;BME280;75078;42.636;23.198;2024-03-02T04:01:14;91480.50;;;6.57;80.56
84835;BME280;75078;42.636;23.198;2024-03-02T04:03:40;91486.03;;;6.59;81.11
84835;BME280;75078;42.636;23.198;2024-03-02T04:06:05;91484.41;;;6.50;81.15
84835;BME280;75078;42.636;23.198;2024-03-02T04:08:30;91480.38;;;6.49;81.48
84835;BME280;75078;42.636;23.198;2024-03-02T04:10:56;91487.72;;;6.51;81.67
84835;BME280;75078;42.636;23.198;2024-03-02T04:13:21;91477.25;;;6.40;82.17
84835;BME280;75078;42.636;23.198;2024-03-02T04:15:47;91482.03;;;6.42;82.09
84835;BME280;75078;42.636;23.198;2024-03-02T04:18:12;91482.97;;;6.34;82.21
84835;BME280;75078;42.636;23.198;2024-03-02T04:20:38;91485.09;;;6.32;82.39
84835;BME280;75078;42.636;23.198;2024-03-02T04:23:03;91485.19;;;6.35;81.97
84835;BME280;75078;42.636;23.198;2024-03-02T04:25:28;91483.03;;;6.37;82.65
84835;BME280;75078;42.636;23.198;2024-03-02T04:27:54;91486.66;;;6.36;82.00
84835;BME280;75078;42.636;23.198;2024-03-02T04:30:19;91486.75;;;6.40;81.88
84835;BME280;75078;42.636;23.198;2024-03-02T04:32:44;91486.75;;;6.40;81.91
84835;BME280;75078;42.636;23.198;2024-03-02T04:35:12;91490.78;;;6.41;82.06
84835;BME280;75078;42.636;23.198;2024-03-02T04:37:40;91487.56;;;6.44;81.96
84835;BME280;75078;42.636;23.198;2024-03-02T04:40:06;91495.63;;;6.46;82.01
84835;BME280;75078;42.636;23.198;2024-03-02T04:42:35;91492.59;;;6.40;82.36
84835;BME280;75078;42.636;23.198;2024-03-02T04:45:00;91486.50;;;6.29;82.41
84835;BME280;75078;42.636;23.198;2024-03-02T04:47:26;91494.00;;;6.38;82.94
84835;BME280;75078;42.636;23.198;2024-03-02T04:49:52;91492.94;;;6.39;82.70
84835;BME280;75078;42.636;23.198;2024-03-02T04:52:17;91495.16;;;6.40;83.18
84835;BME280;75078;42.636;23.198;2024-03-02T04:54:43;91495.47;;;6.39;82.49
84835;BME280;75078;42.636;23.198;2024-03-02T04:57:27;91493.00;;;6.42;82.69
84835;BME280;75078;42.636;23.198;2024-03-02T04:59:52;91502.09;;;6.40;82.57
84835;BME280;75078;42.636;23.198;2024-03-02T05:02:18;91497.63;;;6.37;81.93
84835;BME280;75078;42.636;23.198;2024-03-02T05:04:43;91494.75;;;6.38;81.61
84835;BME280;75078;42.636;23.198;2024-03-02T05:07:08;91498.38;;;6.37;82.75
84835;BME280;75078;42.636;23.198;2024-03-02T05:09:34;91505.72;;;6.39;81.72
84835;BME280;75078;42.636;23.198;2024-03-02T05:11:59;91496.06;;;6.32;82.42
84835;BME280;75078;42.636;23.198;2024-03-02T05:14:57;91488.50;;;6.20;82.09
84835;BME280;75078;42.636;23.198;2024-03-02T05:17:22;91509.19;;;6.31;82.43
84835;BME280;75078;42.636;23.198;2024-03-02T05:19:47;91503.66;;;6.29;82.43
84835;BME280;75078;42.636;23.198;2024-03-02T05:22:13;91492.88;;;6.20;81.81
84835;BME280;75078;42.636;23.198;2024-03-02T05:24:38;91500.28;;;6.25;82.20
84835;BME280;75078;42.636;23.198;2024-03-02T05:27:04;91512.97;;;6.37;82.53
84835;BME280;75078;42.636;23.198;2024-03-02T05:29:29;91504.34;;;6.26;82.46
84835;BME280;75078;42.636;23.198;2024-03-02T05:31:55;91519.16;;;6.36;83.20
84835;BME280;75078;42.636;23.198;2024-03-02T05:34:20;91520.31;;;6.38;82.73
84835;BME280;75078;42.636;23.198;2024-03-02T05:36:45;91500.03;;;6.30;82.64
84835;BME280;75078;42.636;23.198;2024-03-02T05:39:11;91504.41;;;6.29;83.44
84835;BME280;75078;42.636;23.198;2024-03-02T05:41:36;91516.59;;;6.36;83.13
84835;BME280;75078;42.636;23.198;2024-03-02T05:44:03;91496.72;;;6.29;83.28
84835;BME280;75078;42.636;23.198;2024-03-02T05:46:28;91518.91;;;6.41;83.38
84835;BME280;75078;42.636;23.198;2024-03-02T05:48:54;91509.41;;;6.41;83.04
84835;BME280;75078;42.636;23.198;2024-03-02T05:51:19;91513.63;;;6.34;83.23
84835;BME280;75078;42.636;23.198;2024-03-02T05:53:45;91522.28;;;6.45;83.01
84835;BME280;75078;42.636;23.198;2024-03-02T05:56:10;91512.72;;;6.42;82.95
84835;BME280;75078;42.636;23.198;2024-03-02T05:58:37;91527.78;;;6.47;82.76
84835;BME280;75078;42.636;23.198;2024-03-02T06:01:29;91503.81;;;6.36;82.53
84835;BME280;75078;42.636;23.198;2024-03-02T06:03:56;91518.09;;;6.37;83.63
84835;BME280;75078;42.636;23.198;2024-03-02T06:06:22;91529.28;;;6.48;83.80
84835;BME280;75078;42.636;23.198;2024-03-02T06:08:47;91523.25;;;6.40;83.43
84835;BME280;75078;42.636;23.198;2024-03-02T06:11:13;91534.66;;;6.43;83.38
84835;BME280;75078;42.636;23.198;2024-03-02T06:13:38;91530.22;;;6.40;83.18
84835;BME280;75078;42.636;23.198;2024-03-02T06:16:04;91529.38;;;6.36;84.34
84835;BME280;75078;42.636;23.198;2024-03-02T06:18:29;91524.94;;;6.33;84.94
84835;BME280;75078;42.636;23.198;2024-03-02T06:20:55;91513.81;;;6.25;84.35
84835;BME280;75078;42.636;23.198;2024-03-02T06:23:20;91531.69;;;6.25;84.56
84835;BME280;75078;42.636;23.198;2024-03-02T06:25:45;91530.69;;;6.30;84.18
84835;BME280;75078;42.636;23.198;2024-03-02T06:28:11;91525.53;;;6.26;83.90
84835;BME280;75078;42.636;23.198;2024-03-02T06:30:36;91537.72;;;6.33;84.11
84835;BME280;75078;42.636;23.198;2024-03-02T06:33:02;91537.03;;;6.36;84.18
84835;BME280;75078;42.636;23.198;2024-03-02T06:35:29;91534.22;;;6.41;83.60
84835;BME280;75078;42.636;23.198;2024-03-02T06:37:54;91528.41;;;6.25;84.45
84835;BME280;75078;42.636;23.198;2024-03-02T06:40:19;91543.47;;;6.30;84.11
84835;BME280;75078;42.636;23.198;2024-03-02T06:42:46;91527.00;;;6.12;84.79
84835;BME280;75078;42.636;23.198;2024-03-02T06:45:11;91545.06;;;6.19;84.75
84835;BME280;75078;42.636;23.198;2024-03-02T06:47:37;91547.63;;;6.19;85.15
84835;BME280;75078;42.636;23.198;2024-03-02T06:50:02;91543.41;;;6.11;85.49
84835;BME280;75078;42.636;23.198;2024-03-02T06:52:28;91554.38;;;6.11;85.63
84835;BME280;75078;42.636;23.198;2024-03-02T06:54:53;91559.31;;;6.20;85.24
84835;BME280;75078;42.636;23.198;2024-03-02T06:57:18;91554.47;;;6.15;85.17
84835;BME280;75078;42.636;23.198;2024-03-02T06:59:46;91551.41;;;6.09;85.65
84835;BME280;75078;42.636;23.198;2024-03-02T07:02:11;91564.91;;;6.10;85.41
84835;BME280;75078;42.636;23.198;2024-03-02T07:04:37;91557.03;;;6.15;85.45
84835;BME280;75078;42.636;23.198;2024-03-02T07:07:03;91562.94;;;6.19;85.43
84835;BME280;75078;42.636;23.198;2024-03-02T07:09:28;91562.13;;;6.15;85.10
84835;BME280;75078;42.636;23.198;2024-03-02T07:11:53;91562.84;;;6.15;85.84
84835;BME280;75078;42.636;23.198;2024-03-02T07:14:19;91563.53;;;6.12;85.62
84835;BME280;75078;42.636;23.198;2024-03-02T07:16:44;91562.72;;;6.08;86.24
84835;BME280;75078;42.636;23.198;2024-03-02T07:19:09;91567.53;;;5.98;86.99
84835;BME280;75078;42.636;23.198;2024-03-02T07:21:35;91562.84;;;6.00;87.11
84835;BME280;75078;42.636;23.198;2024-03-02T07:24:00;91572.56;;;5.94;86.98
84835;BME280;75078;42.636;23.198;2024-03-02T07:26:29;91571.00;;;5.90;87.12
84835;BME280;75078;42.636;23.198;2024-03-02T07:28:56;91575.69;;;5.88;86.86
84835;BME280;75078;42.636;23.198;2024-03-02T07:31:22;91567.66;;;5.73;87.07
84835;BME280;75078;42.636;23.198;2024-03-02T07:33:47;91567.84;;;5.80;88.11
84835;BME280;75078;42.636;23.198;2024-03-02T07:36:12;91572.81;;;5.89;88.29
84835;BME280;75078;42.636;23.198;2024-03-02T07:38:38;91577.69;;;5.94;87.68
84835;BME280;75078;42.636;23.198;2024-03-02T07:41:04;91580.72;;;6.00;87.83
84835;BME280;75078;42.636;23.198;2024-03-02T07:43:30;91580.16;;;6.06;86.56
84835;BME280;75078;42.636;23.198;2024-03-02T07:45:56;91575.16;;;6.10;86.65
84835;BME280;75078;42.636;23.198;2024-03-02T07:48:22;91579.84;;;6.23;86.81
84835;BME280;75078;42.636;23.198;2024-03-02T07:50:47;91579.84;;;6.23;87.37
84835;BME280;75078;42.636;23.198;2024-03-02T07:53:13;91583.31;;;6.31;88.12
84835;BME280;75078;42.636;23.198;2024-03-02T07:55:39;91580.25;;;6.41;87.20
84835;BME280;75078;42.636;23.198;2024-03-02T07:58:06;91578.50;;;6.45;86.98
84835;BME280;75078;42.636;23.198;2024-03-02T08:00:31;91581.41;;;6.43;86.64
84835;BME280;75078;42.636;23.198;2024-03-02T08:02:57;91575.97;;;6.45;86.61
84835;BME280;75078;42.636;23.198;2024-03-02T08:05:22;91577.44;;;6.46;86.61
84835;BME280;75078;42.636;23.198;2024-03-02T08:07:47;91580.34;;;6.44;86.83
84835;BME280;75078;42.636;23.198;2024-03-02T08:10:13;91590.66;;;6.48;86.86
84835;BME280;75078;42.636;23.198;2024-03-02T08:12:39;91596.97;;;6.54;86.85
84835;BME280;75078;42.636;23.198;2024-03-02T08:15:05;91590.28;;;6.65;85.95
84835;BME280;75078;42.636;23.198;2024-03-02T08:17:31;91591.22;;;6.57;85.91
84835;BME280;75078;42.636;23.198;2024-03-02T08:19:56;91588.09;;;6.48;85.71
84835;BME280;75078;42.636;23.198;2024-03-02T08:22:23;91594.00;;;6.52;86.16
84835;BME280;75078;42.636;23.198;2024-03-02T08:24:50;91593.19;;;6.48;86.48
84835;BME280;75078;42.636;23.198;2024-03-02T08:27:16;91596.34;;;6.41;86.53
84835;BME280;75078;42.636;23.198;2024-03-02T08:29:41;91594.19;;;6.43;87.85
84835;BME280;75078;42.636;23.198;2024-03-02T08:32:06;91591.69;;;6.47;86.40
84835;BME280;75078;42.636;23.198;2024-03-02T08:34:32;91595.09;;;6.51;86.46
84835;BME280;75078;42.636;23.198;2024-03-02T08:36:59;91593.13;;;6.60;86.90
84835;BME280;75078;42.636;23.198;2024-03-02T08:39:24;91602.00;;;6.66;85.78
84835;BME280;75078;42.636;23.198;2024-03-02T08:41:49;91594.25;;;6.78;86.72
84835;BME280;75078;42.636;23.198;2024-03-02T08:44:15;91594.66;;;6.80;84.92
84835;BME280;75078;42.636;23.198;2024-03-02T08:46:40;91602.91;;;6.89;86.18
84835;BME280;75078;42.636;23.198;2024-03-02T08:49:06;91603.72;;;6.93;84.37
84835;BME280;75078;42.636;23.198;2024-03-02T08:51:32;91596.69;;;6.90;84.69
84835;BME280;75078;42.636;23.198;2024-03-02T08:53:57;91602.38;;;6.99;84.82
84835;BME280;75078;42.636;23.198;2024-03-02T08:56:24;91604.53;;;6.97;85.36
84835;BME280;75078;42.636;23.198;2024-03-02T08:58:50;91602.50;;;7.06;85.01
84835;BME280;75078;42.636;23.198;2024-03-02T09:01:16;91605.63;;;7.15;84.51
84835;BME280;75078;42.636;23.198;2024-03-02T09:03:42;91598.75;;;7.19;84.99
84835;BME280;75078;42.636;23.198;2024-03-02T09:06:10;91602.16;;;7.23;84.86
84835;BME280;75078;42.636;23.198;2024-03-02T09:08:35;91603.38;;;7.30;85.22
84835;BME280;75078;42.636;23.198;2024-03-02T09:11:05;91605.97;;;7.33;83.47
84835;BME280;75078;42.636;23.198;2024-03-02T09:13:32;91608.53;;;7.33;84.65
84835;BME280;75078;42.636;23.198;2024-03-02T09:15:57;91612.19;;;7.32;84.13
84835;BME280;75078;42.636;23.198;2024-03-02T09:18:22;91618.06;;;7.33;84.15
84835;BME280;75078;42.636;23.198;2024-03-02T09:20:48;91618.47;;;7.35;84.46
84835;BME280;75078;42.636;23.198;2024-03-02T09:23:14;91624.06;;;7.40;83.98
84835;BME280;75078;42.636;23.198;2024-03-02T09:25:39;91621.19;;;7.42;82.82
84835;BME280;75078;42.636;23.198;2024-03-02T09:28:05;91624.81;;;7.41;83.81
84835;BME280;75078;42.636;23.198;2024-03-02T09:30:30;91629.31;;;7.47;83.71
84835;BME280;75078;42.636;23.198;2024-03-02T09:32:56;91626.41;;;7.49;83.66
84835;BME280;75078;42.636;23.198;2024-03-02T09:35:21;91624.53;;;7.46;83.78
84835;BME280;75078;42.636;23.198;2024-03-02T09:37:47;91636.09;;;7.40;82.29
84835;BME280;75078;42.636;23.198;2024-03-02T09:40:13;91634.03;;;7.45;81.60
84835;BME280;75078;42.636;23.198;2024-03-02T09:42:39;91631.53;;;7.49;81.68
84835;BME280;75078;42.636;23.198;2024-03-02T09:45:06;91628.56;;;7.47;81.26
84835;BME280;75078;42.636;23.198;2024-03-02T09:47:31;91636.66;;;7.49;82.55
84835;BME280;75078;42.636;23.198;2024-03-02T09:49:57;91630.59;;;7.38;81.64
84835;BME280;75078;42.636;23.198;2024-03-02T09:52:23;91627.84;;;7.11;82.21
84835;BME280;75078;42.636;23.198;2024-03-02T09:54:48;91637.84;;;7.16;82.67
84835;BME280;75078;42.636;23.198;2024-03-02T09:57:14;91632.81;;;7.04;82.43
84835;BME280;75078;42.636;23.198;2024-03-02T09:59:40;91637.38;;;6.95;84.47
84835;BME280;75078;42.636;23.198;2024-03-02T10:02:05;91632.59;;;6.94;84.50
84835;BME280;75078;42.636;23.198;2024-03-02T10:04:32;91637.78;;;6.97;85.42
84835;BME280;75078;42.636;23.198;2024-03-02T10:07:17;91634.81;;;6.95;83.68
84835;BME280;75078;42.636;23.198;2024-03-02T10:09:47;91635.00;;;6.87;84.86
84835;BME280;75078;42.636;23.198;2024-03-02T10:12:14;91628.56;;;6.77;83.82
84835;BME280;75078;42.636;23.198;2024-03-02T10:14:40;91632.34;;;6.83;84.11
84835;BME280;75078;42.636;23.198;2024-03-02T10:17:07;91631.03;;;6.89;84.51
84835;BME280;75078;42.636;23.198;2024-03-02T10:19:33;91628.88;;;6.91;83.47
84835;BME280;75078;42.636;23.198;2024-03-02T10:22:01;91631.44;;;6.91;83.97
84835;BME280;75078;42.636;23.198;2024-03-02T10:24:34;91629.44;;;7.00;84.20
84835;BME280;75078;42.636;23.198;2024-03-02T10:27:00;91631.25;;;7.00;82.93
84835;BME280;75078;42.636;23.198;2024-03-02T10:29:25;91627.69;;;7.04;81.91
84835;BME280;75078;42.636;23.198;2024-03-02T10:31:54;91627.28;;;7.02;83.69
84835;BME280;75078;42.636;23.198;2024-03-02T10:34:19;91635.47;;;6.92;81.79
84835;BME280;75078;42.636;23.198;2024-03-02T10:36:47;91626.47;;;6.98;83.59
84835;BME280;75078;42.636;23.198;2024-03-02T10:39:13;91625.53;;;7.06;83.93
84835;BME280;75078;42.636;23.198;2024-03-02T10:41:39;91625.53;;;7.06;80.80
84835;BME280;75078;42.636;23.198;2024-03-02T10:44:09;91623.09;;;7.10;82.35
84835;BME280;75078;42.636;23.198;2024-03-02T10:46:37;91624.19;;;7.12;81.68
84835;BME280;75078;42.636;23.198;2024-03-02T10:49:04;91614.06;;;7.16;82.23
84835;BME280;75078;42.636;23.198;2024-03-02T10:51:31;91619.31;;;7.23;80.80
84835;BME280;75078;42.636;23.198;2024-03-02T10:54:01;91614.25;;;7.27;82.36
84835;BME280;75078;42.636;23.198;2024-03-02T10:56:41;91612.94;;;7.33;81.30
84835;BME280;75078;42.636;23.198;2024-03-02T11:01:36;91618.13;;;7.36;82.84
84835;BME280;75078;42.636;23.198;2024-03-02T11:04:03;91614.34;;;7.30;80.35
84835;BME280;75078;42.636;23.198;2024-03-02T11:06:30;91615.50;;;7.33;82.04
84835;BME280;75078;42.636;23.198;2024-03-02T11:09:00;91610.78;;;7.35;82.45
84835;BME280;75078;42.636;23.198;2024-03-02T11:11:30;91615.75;;;7.28;81.52
84835;BME280;75078;42.636;23.198;2024-03-02T11:14:01;91613.06;;;7.20;82.45
84835;BME280;75078;42.636;23.198;2024-03-02T11:16:36;91607.53;;;7.18;80.47
84835;BME280;75078;42.636;23.198;2024-03-02T11:19:08;91607.13;;;7.16;82.20
84835;BME280;75078;42.636;23.198;2024-03-02T11:21:35;91610.41;;;7.17;82.73
84835;BME280;75078;42.636;23.198;2024-03-02T11:26:46;91605.63;;;7.15;80.79
84835;BME280;75078;42.636;23.198;2024-03-02T11:32:06;91604.84;;;7.31;82.75
84835;BME280;75078;42.636;23.198;2024-03-02T11:34:35;91604.91;;;7.34;82.22
84835;BME280;75078;42.636;23.198;2024-03-02T11:37:01;91607.13;;;7.36;81.41
84835;BME280;75078;42.636;23.198;2024-03-02T11:39:30;91605.81;;;7.42;81.72
84835;BME280;75078;42.636;23.198;2024-03-02T11:41:56;91607.41;;;7.50;81.06
84835;BME280;75078;42.636;23.198;2024-03-02T11:44:22;91600.94;;;7.56;81.20
84835;BME280;75078;42.636;23.198;2024-03-02T11:47:01;91602.03;;;7.55;78.69
84835;BME280;75078;42.636;23.198;2024-03-02T11:49:39;91606.94;;;7.63;80.65
84835;BME280;75078;42.636;23.198;2024-03-02T11:52:07;91600.16;;;7.71;79.82
84835;BME280;75078;42.636;23.198;2024-03-02T11:54:33;91599.75;;;7.69;77.98
84835;BME280;75078;42.636;23.198;2024-03-02T11:57:02;91601.88;;;7.67;77.69
84835;BME280;75078;42.636;23.198;2024-03-02T11:59:31;91595.69;;;7.68;79.01
84835;BME280;75078;42.636;23.198;2024-03-02T12:01:58;91598.38;;;7.75;79.92
84835;BME280;75078;42.636;23.198;2024-03-02T12:04:24;91598.84;;;7.80;77.87
84835;BME280;75078;42.636;23.198;2024-03-02T12:07:01;91599.97;;;7.83;78.47
84835;BME280;75078;42.636;23.198;2024-03-02T12:09:30;91593.44;;;7.85;76.80
84835;BME280;75078;42.636;23.198;2024-03-02T12:12:03;91600.13;;;7.90;75.38
84835;BME280;75078;42.636;23.198;2024-03-02T12:14:29;91592.56;;;7.97;75.45
84835;BME280;75078;42.636;23.198;2024-03-02T12:16:55;91593.53;;;7.89;75.02
84835;BME280;75078;42.636;23.198;2024-03-02T12:19:21;91599.09;;;7.94;75.82
84835;BME280;75078;42.636;23.198;2024-03-02T12:21:46;91597.41;;;8.02;76.83
84835;BME280;75078;42.636;23.198;2024-03-02T12:24:12;91600.09;;;8.09;75.46
84835;BME280;75078;42.636;23.198;2024-03-02T12:26:37;91598.06;;;8.18;74.73
84835;BME280;75078;42.636;23.198;2024-03-02T12:29:03;91592.09;;;8.14;73.49
84835;BME280;75078;42.636;23.198;2024-03-02T12:31:28;91596.16;;;8.15;78.20
84835;BME280;75078;42.636;23.198;2024-03-02T12:33:54;91591.78;;;8.16;81.72
84835;BME280;75078;42.636;23.198;2024-03-02T12:36:20;91599.13;;;8.17;81.08
84835;BME280;75078;42.636;23.198;2024-03-02T12:38:45;91598.84;;;8.22;81.93
84835;BME280;75078;42.636;23.198;2024-03-02T12:41:14;91596.34;;;8.26;80.64
84835;BME280;75078;42.636;23.198;2024-03-02T12:43:40;91588.19;;;8.20;80.66
84835;BME280;75078;42.636;23.198;2024-03-02T12:46:06;91595.34;;;8.30;80.70
84835;BME280;75078;42.636;23.198;2024-03-02T12:48:35;91593.59;;;8.34;81.48
84835;BME280;75078;42.636;23.198;2024-03-02T12:51:01;91597.91;;;8.30;80.26
84835;BME280;75078;42.636;23.198;2024-03-02T12:53:27;91606.34;;;8.31;81.77
84835;BME280;75078;42.636;23.198;2024-03-02T12:55:52;91603.16;;;8.37;80.54
84835;BME280;75078;42.636;23.198;2024-03-02T12:58:22;91600.97;;;8.39;80.57
84835;BME280;75078;42.636;23.198;2024-03-02T13:00:48;91598.81;;;8.41;80.50
84835;BME280;75078;42.636;23.198;2024-03-02T13:03:13;91598.41;;;8.39;80.86
84835;BME280;75078;42.636;23.198;2024-03-02T13:05:39;91597.44;;;8.25;81.34